Time;durP1;ratioP1;P1;durP2;ratioP2;P2;SDS_P1;SDS_P2;PMS_P1;PMS_P2;Temp;Humidity;BMP_temperature;BMP_pressure;BME280_temperature;BME280_humidity;BME280_pressure;Samples;Min_cycle;Max_cycle;Signal;HPM_P1;HPM_P2
2022/08/09 00:01:15;;;;;;;18.15;6.03;;;;;;;11.84;76.25;99731.92;2281237;78;21293;-81
2022/08/09 00:04:16;;;;;;;8.93;5.10;;;;;;;11.71;76.75;99729.87;2280968;78;20902;-81
2022/08/09 00:07:16;;;;;;;8.68;5.97;;;;;;;11.69;77.09;99726.34;2281053;78;20950;-80
2022/08/09 00:10:16;;;;;;;6.67;4.80;;;;;;;11.69;77.36;99723.30;2281458;78;20946;-80
2022/08/09 00:13:17;;;;;;;41.03;7.47;;;;;;;11.65;77.06;99728.01;2281648;78;20934;-80
2022/08/09 00:16:17;;;;;;;8.60;5.60;;;;;;;11.60;77.34;99725.72;2281606;78;20938;-81
2022/08/09 00:19:18;;;;;;;6.10;5.30;;;;;;;11.63;77.53;99730.12;2280884;78;21369;-81
2022/08/09 00:22:18;;;;;;;8.57;5.33;;;;;;;11.56;77.26;99734.77;2281324;77;20946;-82
2022/08/09 00:25:18;;;;;;;12.57;6.77;;;;;;;11.47;77.47;99731.53;2249258;78;20989;-81
2022/08/09 00:28:19;;;;;;;8.58;5.53;;;;;;;11.45;77.73;99735.84;2249278;78;21384;-81
2022/08/09 00:31:20;;;;;;;7.50;5.90;;;;;;;11.41;77.96;99736.62;2249256;79;20935;-82
2022/08/09 00:34:20;;;;;;;9.57;5.50;;;;;;;11.35;77.81;99734.75;2249153;78;20865;-82
2022/08/09 00:37:20;;;;;;;7.60;5.23;;;;;;;11.34;78.00;99741.25;2249370;79;20932;-81
2022/08/09 00:40:20;;;;;;;9.28;5.50;;;;;;;11.27;77.49;99735.39;2249101;79;20967;-82
2022/08/09 00:43:21;;;;;;;7.22;5.37;;;;;;;11.20;77.83;99733.48;2249261;78;20944;-81
2022/08/09 00:46:21;;;;;;;13.00;5.87;;;;;;;11.12;77.73;99741.14;2249224;79;21350;-81
2022/08/09 00:49:22;;;;;;;22.73;5.80;;;;;;;11.12;78.43;99736.80;2249151;78;20960;-80
2022/08/09 00:52:23;;;;;;;9.80;5.30;;;;;;;11.08;78.27;99737.99;2249055;78;20884;-82
2022/08/09 00:55:22;;;;;;;6.90;5.17;;;;;;;11.07;78.54;99738.41;2249197;79;20964;-81
2022/08/09 00:58:23;;;;;;;8.77;5.43;;;;;;;11.00;78.19;99739.11;2249137;78;21003;-81
2022/08/09 01:01:23;;;;;;;9.83;5.20;;;;;;;10.97;78.65;99735.13;2249368;79;20963;-81
2022/08/09 01:04:24;;;;;;;6.90;5.23;;;;;;;10.96;78.60;99737.70;2249666;78;21371;-81
2022/08/09 01:07:24;;;;;;;13.70;6.30;;;;;;;10.94;78.71;99740.27;2249272;79;20908;-82
2022/08/09 01:10:24;;;;;;;6.77;5.17;;;;;;;10.95;79.01;99739.85;2249404;78;21305;-80
2022/08/09 01:13:25;;;;;;;7.10;4.60;;;;;;;10.99;78.83;99736.04;2249435;78;20928;-81
2022/08/09 01:16:25;;;;;;;7.43;5.50;;;;;;;10.97;78.28;99741.66;2249371;78;20904;-80
2022/08/09 01:19:26;;;;;;;7.33;5.43;;;;;;;10.89;78.33;99731.44;2249185;78;21308;-81
2022/08/09 01:22:26;;;;;;;8.03;5.30;;;;;;;10.83;78.52;99741.31;2249033;78;21008;-79
2022/08/09 01:25:27;;;;;;;7.80;5.10;;;;;;;10.83;78.68;99741.31;2279967;77;20906;-80
2022/08/09 01:28:27;;;;;;;7.80;5.40;;;;;;;10.77;78.90;99747.69;2281632;78;20958;-80
2022/08/09 01:31:27;;;;;;;5.87;5.27;;;;;;;10.77;79.06;99748.11;2281556;78;20973;-80
2022/08/09 01:34:28;;;;;;;11.30;5.40;;;;;;;10.78;79.16;99744.23;2281808;78;20895;-81
2022/08/09 01:37:28;;;;;;;5.50;4.93;;;;;;;10.73;78.89;99741.92;2281292;78;20922;-81
2022/08/09 01:40:29;;;;;;;8.60;5.37;;;;;;;10.72;79.18;99748.00;2281956;78;20993;-80
2022/08/09 01:43:29;;;;;;;9.13;5.50;;;;;;;10.70;79.05;99747.07;2282306;78;20981;-81
2022/08/09 01:46:30;;;;;;;7.77;4.97;;;;;;;10.65;78.96;99749.10;2281980;78;20883;-81
2022/08/09 01:49:30;;;;;;;7.73;5.27;;;;;;;10.61;79.09;99751.17;2281898;78;20938;-80
2022/08/09 01:52:30;;;;;;;6.80;5.10;;;;;;;10.60;79.21;99751.59;2281807;78;20934;-80
2022/08/09 01:55:31;;;;;;;6.03;5.30;;;;;;;10.59;79.15;99753.75;2281668;78;20954;-81
2022/08/09 01:58:31;;;;;;;8.70;5.80;;;;;;;10.51;79.04;99750.05;2281662;78;20958;-80
2022/08/09 02:01:32;;;;;;;6.43;5.57;;;;;;;10.42;79.16;99755.03;2281677;78;20934;-81
2022/08/09 02:04:32;;;;;;;6.17;5.57;;;;;;;10.38;79.35;99750.11;2281388;78;20941;-81
2022/08/09 02:07:33;;;;;;;41.87;8.17;;;;;;;10.39;79.54;99751.00;2281396;78;20946;-80
2022/08/09 02:10:33;;;;;;;20.97;5.63;;;;;;;10.39;79.90;99753.19;2281823;78;20941;-80
2022/08/09 02:13:33;;;;;;;10.73;5.80;;;;;;;10.39;79.79;99749.69;2281672;78;20890;-80
2022/08/09 02:16:34;;;;;;;7.00;5.37;;;;;;;10.32;79.58;99751.67;2281907;78;20919;-80
2022/08/09 02:19:34;;;;;;;43.83;8.10;;;;;;;10.27;79.53;99747.64;2281526;78;20993;-80
2022/08/09 02:22:35;;;;;;;8.03;5.70;;;;;;;10.25;79.89;99753.66;2281174;78;20934;-81
2022/08/09 02:25:35;;;;;;;9.57;5.87;;;;;;;10.27;79.88;99754.58;2290674;77;20968;-80
2022/08/09 02:28:36;;;;;;;6.80;5.13;;;;;;;10.25;79.78;99748.44;2291274;78;20921;-80
2022/08/09 02:31:36;;;;;;;8.60;5.43;;;;;;;10.22;79.72;99746.62;2291472;78;20912;-80
2022/08/09 02:34:36;;;;;;;6.57;4.77;;;;;;;10.20;79.75;99749.61;2291207;78;21293;-81
2022/08/09 02:37:37;;;;;;;15.17;6.27;;;;;;;10.15;79.61;99745.54;2290940;78;21292;-78
2022/08/09 02:40:37;;;;;;;8.30;5.77;;;;;;;10.12;79.87;99744.15;2290841;78;20897;-81
2022/08/09 02:43:38;;;;;;;6.87;5.50;;;;;;;10.12;80.18;99747.18;2291139;78;20987;-80
2022/08/09 02:46:38;;;;;;;7.00;5.70;;;;;;;10.09;79.76;99749.70;2290849;78;20928;-81
2022/08/09 02:49:39;;;;;;;8.10;5.73;;;;;;;10.11;80.01;99746.72;2291042;78;20959;-80
2022/08/09 02:52:39;;;;;;;7.73;6.17;;;;;;;10.07;79.74;99754.88;2291360;78;20964;-81
2022/08/09 02:55:39;;;;;;;8.27;6.20;;;;;;;10.04;79.64;99752.18;2290821;78;20967;-80
2022/08/09 02:58:40;;;;;;;11.13;6.37;;;;;;;10.02;79.86;99748.64;2290865;78;20936;-80
2022/08/09 03:01:41;;;;;;;8.33;5.73;;;;;;;10.01;80.08;99752.09;2290690;78;20959;-81
2022/08/09 03:04:41;;;;;;;7.33;5.80;;;;;;;9.99;80.23;99749.86;2290476;78;20947;-81
2022/08/09 03:07:41;;;;;;;9.70;5.57;;;;;;;9.95;79.98;99748.01;2290209;78;20931;-80
2022/08/09 03:10:42;;;;;;;11.03;5.80;;;;;;;9.96;80.24;99753.69;2291263;78;20912;-81
2022/08/09 03:13:42;;;;;;;10.70;5.90;;;;;;;9.95;80.33;99755.83;2291554;78;20944;-80
2022/08/09 03:16:42;;;;;;;11.03;5.33;;;;;;;9.93;79.98;99758.81;2291837;78;21324;-81
2022/08/09 03:19:43;;;;;;;9.00;6.20;;;;;;;9.89;80.03;99756.96;2291315;78;20975;-82
2022/08/09 03:22:45;;;;;;;7.43;5.83;;;;;;;9.92;79.97;99755.74;2291298;78;20920;-81
2022/08/09 03:25:44;;;;;;;11.10;5.53;;;;;;;9.91;79.70;99756.59;2282424;78;21006;-82
2022/08/09 03:28:44;;;;;;;10.70;5.90;;;;;;;9.82;79.88;99755.02;2281594;78;20977;-81
2022/08/09 03:31:44;;;;;;;8.67;5.53;;;;;;;9.84;80.13;99754.64;2281869;77;20940;-80
2022/08/09 03:34:45;;;;;;;50.53;9.30;;;;;;;9.82;80.18;99751.98;2281780;78;20966;-80
2022/08/09 03:37:45;;;;;;;9.07;5.67;;;;;;;9.82;80.17;99755.02;2280538;78;20993;-83
2022/08/09 03:40:46;;;;;;;32.83;7.40;;;;;;;9.87;80.33;99748.20;2281616;77;20910;-81
2022/08/09 03:43:46;;;;;;;11.57;5.93;;;;;;;9.87;80.15;99749.09;2280781;77;20945;-83
2022/08/09 03:46:46;;;;;;;10.30;5.80;;;;;;;9.86;80.32;99748.63;2280086;77;21639;-81
2022/08/09 03:49:47;;;;;;;10.30;6.10;;;;;;;9.92;80.53;99750.53;2280015;78;20922;-80
2022/08/09 03:52:47;;;;;;;9.30;6.17;;;;;;;10.00;80.44;99751.63;2280242;78;20969;-80
2022/08/09 03:55:48;;;;;;;10.57;5.60;;;;;;;10.04;80.01;99751.30;2280131;78;20969;-83
2022/08/09 03:58:48;;;;;;;14.17;5.63;;;;;;;10.04;80.11;99752.60;2280700;78;20946;-81
2022/08/09 04:01:49;;;;;;;1071.73;100.13;;;;;;;10.08;80.10;99751.84;2280592;78;20929;-81
2022/08/09 04:04:49;;;;;;;24.80;9.00;;;;;;;10.13;80.23;99752.86;2280240;78;20911;-80
2022/08/09 04:07:49;;;;;;;11.40;5.60;;;;;;;10.24;80.50;99748.86;2279798;78;21345;-81
2022/08/09 04:10:50;;;;;;;13.83;5.57;;;;;;;10.31;80.33;99749.91;2280835;78;21235;-80
2022/08/09 04:13:50;;;;;;;8.83;4.93;;;;;;;10.35;80.24;99753.95;2279987;78;20922;-81
2022/08/09 04:16:51;;;;;;;100.03;10.97;;;;;;;10.39;80.18;99751.88;2279389;77;20919;-79
2022/08/09 04:19:51;;;;;;;10.57;5.17;;;;;;;10.44;80.45;99746.39;2279212;78;21360;-80
2022/08/09 04:22:51;;;;;;;7.47;5.73;;;;;;;10.54;80.54;99748.83;2278583;78;20965;-80
2022/08/09 04:25:52;;;;;;;8.70;5.43;;;;;;;10.59;80.25;99749.83;2286164;77;20980;-80
2022/08/09 04:28:52;;;;;;;12.70;5.40;;;;;;;10.64;80.25;99754.75;2289655;78;21330;-79
2022/08/09 04:31:53;;;;;;;7.50;6.10;;;;;;;10.72;80.58;99761.47;2289092;78;20928;-80
2022/08/09 04:34:53;;;;;;;6.50;5.07;;;;;;;10.82;80.85;99765.66;2290532;78;20948;-80
2022/08/09 04:37:53;;;;;;;10.47;6.17;;;;;;;10.99;80.91;99767.81;2289798;78;20940;-80
2022/08/09 04:40:54;;;;;;;130.63;13.33;;;;;;;11.19;81.34;99761.34;2290251;78;20905;-80
2022/08/09 04:43:54;;;;;;;72.80;8.07;;;;;;;11.44;81.28;99764.14;2289843;78;21455;-81
2022/08/09 04:46:55;;;;;;;10.53;5.90;;;;;;;11.63;80.93;99761.52;2288466;78;20912;-79
2022/08/09 04:49:55;;;;;;;20.95;6.00;;;;;;;11.92;80.98;99764.78;2289116;78;21639;-79
2022/08/09 04:52:55;;;;;;;12.70;5.95;;;;;;;12.26;81.10;99767.70;2288464;78;20959;-77
2022/08/09 04:55:56;;;;;;;37.80;6.62;;;;;;;12.61;80.74;99770.55;2288037;78;20954;-79
2022/08/09 04:58:56;;;;;;;12.82;6.17;;;;;;;12.94;80.32;99769.38;2288426;78;20948;-80
2022/08/09 05:01:57;;;;;;;25.00;6.85;;;;;;;13.14;79.98;99761.88;2288313;78;21288;-79
2022/08/09 05:04:57;;;;;;;13.78;6.42;;;;;;;13.35;80.14;99765.75;2288688;78;21300;-80
2022/08/09 05:07:58;;;;;;;23.12;8.30;;;;;;;13.65;80.22;99762.70;2288560;78;20949;-81
2022/08/09 05:10:58;;;;;;;24.60;8.03;;;;;;;13.92;78.99;99770.09;2288706;78;20880;-79
2022/08/09 05:13:59;;;;;;;98.27;13.90;;;;;;;14.18;78.35;99775.67;2289411;78;20920;-79
2022/08/09 05:16:59;;;;;;;33.98;8.23;;;;;;;14.49;77.77;99773.00;2289960;78;21086;-81
2022/08/09 05:20:00;;;;;;;21.02;7.45;;;;;;;14.79;77.07;99772.45;2289645;78;20916;-81
2022/08/09 05:23:00;;;;;;;16.55;6.28;;;;;;;15.09;76.74;99774.91;2289406;78;20908;-80
2022/08/09 05:26:00;;;;;;;29.77;7.40;;;;;;;15.37;76.18;99772.06;2280806;78;21057;-79
2022/08/09 05:29:01;;;;;;;22.15;7.25;;;;;;;15.62;75.30;99772.75;2278472;78;20918;-80
2022/08/09 05:32:01;;;;;;;22.48;6.62;;;;;;;15.81;74.05;99777.68;2278530;78;21333;-79
2022/08/09 05:35:02;;;;;;;9.85;5.90;;;;;;;16.05;73.59;99779.56;2278497;78;20922;-80
2022/08/09 05:38:02;;;;;;;11.08;5.55;;;;;;;16.24;72.95;99782.27;2277670;78;20993;-79
2022/08/09 05:41:03;;;;;;;14.75;5.53;;;;;;;16.44;72.39;99781.46;2278520;78;20914;-78
2022/08/09 05:44:03;;;;;;;14.30;5.08;;;;;;;16.69;72.12;99787.75;2278533;78;20929;-78
2022/08/09 05:47:04;;;;;;;15.23;5.58;;;;;;;16.90;71.54;99784.27;2279171;78;20997;-79
2022/08/09 05:50:04;;;;;;;54.27;8.83;;;;;;;17.09;71.09;99786.92;2279965;78;20949;-78
2022/08/09 05:53:05;;;;;;;14.78;5.25;;;;;;;17.33;70.68;99782.08;2279149;78;20994;-79
2022/08/09 05:56:05;;;;;;;8.15;4.37;;;;;;;17.62;69.84;99783.40;2278229;78;20965;-80
2022/08/09 05:59:06;;;;;;;6.30;3.65;;;;;;;18.01;69.08;99789.50;2278038;78;21395;-79
2022/08/09 06:02:15;;;;;;;8.03;3.92;;;;;;;18.37;68.36;99783.22;2278211;78;20910;-77
2022/08/09 06:05:15;;;;;;;9.10;4.08;;;;;;;18.80;67.13;99793.15;2277578;78;20921;-79
2022/08/09 06:08:16;;;;;;;5.60;3.62;;;;;;;19.00;65.94;99785.95;2278435;78;20989;-78
2022/08/09 06:11:16;;;;;;;11.40;4.00;;;;;;;19.11;65.71;99791.64;2277860;78;21306;-79
2022/08/09 06:14:17;;;;;;;7.22;4.05;;;;;;;19.29;65.68;99786.20;2278180;78;21004;-80
2022/08/09 06:17:17;;;;;;;11.57;4.47;;;;;;;19.46;65.26;99791.35;2279286;77;20886;-80
2022/08/09 06:20:17;;;;;;;8.13;4.33;;;;;;;19.62;64.75;99781.08;2278599;78;20922;-79
2022/08/09 06:23:18;;;;;;;7.33;3.67;;;;;;;19.73;64.51;99783.17;2277961;78;20934;-80
2022/08/09 06:26:18;;;;;;;6.78;4.17;;;;;;;19.95;63.78;99790.48;2251380;78;20968;-80
2022/08/09 06:29:19;;;;;;;15.18;4.87;;;;;;;20.16;63.15;99784.92;2246161;78;20907;-78
2022/08/09 06:32:19;;;;;;;9.15;3.50;;;;;;;20.33;62.63;99782.06;2246222;79;21260;-78
2022/08/09 06:35:20;;;;;;;5.05;3.35;;;;;;;20.49;62.10;99784.10;2247528;78;20993;-79
2022/08/09 06:38:20;;;;;;;8.23;3.47;;;;;;;20.79;61.72;99788.98;2247083;79;21010;-79
2022/08/09 06:41:20;;;;;;;8.60;4.20;;;;;;;21.13;61.16;99787.16;2246439;78;20944;-80
2022/08/09 06:44:21;;;;;;;7.67;3.80;;;;;;;21.46;59.89;99793.28;2246918;78;20952;-79
2022/08/09 06:47:21;;;;;;;13.55;3.85;;;;;;;21.57;59.49;99791.31;2246874;78;20905;-79
2022/08/09 06:50:22;;;;;;;6.53;3.45;;;;;;;21.72;59.18;99792.84;2247445;78;20888;-81
2022/08/09 06:53:22;;;;;;;10.38;3.92;;;;;;;21.94;58.58;99789.33;2246723;78;20890;-78
2022/08/09 06:56:22;;;;;;;13.68;4.55;;;;;;;22.16;58.23;99792.02;2247444;79;20944;-79
2022/08/09 06:59:23;;;;;;;31.45;7.37;;;;;;;22.37;56.77;99801.80;2246888;78;21289;-79
2022/08/09 07:02:23;;;;;;;9.08;3.65;;;;;;;22.39;57.40;99805.30;2247207;78;20889;-78
2022/08/09 07:05:24;;;;;;;6.33;3.80;;;;;;;22.46;56.70;99804.27;2247667;78;20911;-80
2022/08/09 07:08:24;;;;;;;12.58;3.87;;;;;;;22.56;57.05;99800.53;2245915;79;20987;-79
2022/08/09 07:11:24;;;;;;;9.88;3.42;;;;;;;22.76;57.23;99798.77;2246232;78;20932;-80
2022/08/09 07:14:25;;;;;;;5.40;3.35;;;;;;;22.77;56.33;99800.06;2246675;78;20944;-81
2022/08/09 07:17:25;;;;;;;7.60;3.08;;;;;;;22.81;55.95;99807.55;2246343;79;20951;-79
2022/08/09 07:20:26;;;;;;;3.98;2.67;;;;;;;22.80;54.90;99802.69;2246514;78;21266;-80
2022/08/09 07:23:26;;;;;;;3.77;2.08;;;;;;;22.87;54.66;99806.95;2245523;78;20955;-80
2022/08/09 07:26:28;;;;;;;4.75;1.80;;;;;;;23.12;53.20;99805.05;2271248;78;20990;-80
2022/08/09 07:29:27;;;;;;;4.35;2.30;;;;;;;23.45;51.82;99806.92;2277861;78;20910;-80
2022/08/09 07:32:27;;;;;;;6.12;2.10;;;;;;;23.72;51.38;99813.81;2278462;78;20918;-80
2022/08/09 07:35:28;;;;;;;7.78;1.92;;;;;;;23.59;49.70;99808.39;2278413;78;20956;-80
2022/08/09 07:38:28;;;;;;;4.72;2.10;;;;;;;23.45;50.14;99806.92;2278627;78;21667;-81
2022/08/09 07:41:29;;;;;;;4.80;1.90;;;;;;;23.41;50.51;99809.24;2279564;78;20969;-80
2022/08/09 07:44:29;;;;;;;7.60;2.42;;;;;;;23.60;49.55;99818.14;2280746;78;20961;-81
2022/08/09 07:47:29;;;;;;;11.78;3.17;;;;;;;23.59;49.43;99812.39;2280889;78;20941;-81
2022/08/09 07:50:30;;;;;;;11.68;2.65;;;;;;;23.67;49.80;99815.73;2279106;78;20957;-80
2022/08/09 07:53:31;;;;;;;3.02;2.42;;;;;;;23.72;48.66;99813.81;2279475;78;20941;-80
2022/08/09 07:56:36;;;;;;;3.58;2.10;;;;;;;23.67;48.08;99815.73;2279876;78;20961;-81
2022/08/09 07:59:37;;;;;;;11.97;2.60;;;;;;;23.77;47.85;99810.12;2278825;78;20985;-82
2022/08/09 08:02:37;;;;;;;5.12;2.15;;;;;;;23.95;48.11;99810.08;2279150;77;20944;-81
2022/08/09 08:05:37;;;;;;;2.65;1.87;;;;;;;24.02;47.74;99815.66;2279895;78;20910;-80
2022/08/09 08:08:38;;;;;;;5.62;1.95;;;;;;;24.31;46.93;99813.58;2279895;78;20945;-81
2022/08/09 08:11:38;;;;;;;7.33;2.00;;;;;;;24.28;45.15;99818.13;2279678;78;21294;-80
2022/08/09 08:14:39;;;;;;;3.47;1.82;;;;;;;24.11;44.39;99815.41;2280688;78;20994;-81
2022/08/09 08:17:39;;;;;;;6.35;2.15;;;;;;;24.16;46.31;99817.94;2280078;78;20989;-81
2022/08/09 08:20:40;;;;;;;96.60;8.95;;;;;;;24.36;46.19;99830.78;2279466;78;20878;-82
2022/08/09 08:23:40;;;;;;;7.12;2.45;;;;;;;24.45;45.06;99821.18;2279314;78;20922;-82
2022/08/09 08:26:40;;;;;;;2.37;1.47;;;;;;;24.58;44.23;99826.57;2286745;78;20952;-83
2022/08/09 08:29:41;;;;;;;4.70;1.70;;;;;;;24.76;44.59;99826.02;2289206;78;20928;-81
2022/08/09 08:32:41;;;;;;;2.33;1.70;;;;;;;24.99;43.94;99821.80;2288015;78;20964;-82
2022/08/09 08:35:42;;;;;;;3.75;1.70;;;;;;;24.95;42.54;99824.12;2288793;78;20876;-82
2022/08/09 08:38:43;;;;;;;5.45;1.60;;;;;;;24.98;43.40;99831.61;2288478;78;21289;-84
2022/08/09 08:41:42;;;;;;;5.42;1.80;;;;;;;24.93;42.24;99828.63;2288156;78;20932;-82
2022/08/09 08:44:43;;;;;;;1.92;1.50;;;;;;;24.94;42.18;99829.05;2288202;78;20892;-83
2022/08/09 08:47:43;;;;;;;3.83;1.47;;;;;;;24.90;42.58;99838.07;2287897;78;20916;-82
2022/08/09 08:50:44;;;;;;;5.45;1.90;;;;;;;24.88;41.67;99834.11;2287682;78;21327;-82
2022/08/09 08:53:44;;;;;;;6.10;1.72;;;;;;;24.76;41.23;99835.83;2287446;78;20943;-82
2022/08/09 08:56:44;;;;;;;3.47;1.30;;;;;;;24.62;42.04;99836.23;2287976;78;20967;-82
2022/08/09 08:59:45;;;;;;;2.25;1.40;;;;;;;24.67;41.48;99828.97;2288120;78;20944;-83
2022/08/09 09:02:45;;;;;;;26.42;2.47;;;;;;;24.63;40.67;99828.64;2288297;78;20907;-82
2022/08/09 09:05:47;;;;;;;3.42;1.47;;;;;;;24.60;40.18;99822.52;2288743;78;20913;-81
2022/08/09 09:08:47;;;;;;;11.53;1.65;;;;;;;24.63;41.02;99825.09;2288273;78;21374;-82
2022/08/09 09:11:47;;;;;;;2.22;1.45;;;;;;;24.64;39.65;99830.39;2288059;78;20897;-81
2022/08/09 09:14:48;;;;;;;3.72;1.20;;;;;;;24.67;40.01;99820.08;2288380;78;20916;-82
2022/08/09 09:17:48;;;;;;;9.00;2.08;;;;;;;24.75;40.48;99822.94;2288588;78;20944;-81
2022/08/09 09:20:49;;;;;;;2.90;1.15;;;;;;;24.96;39.13;99825.41;2288948;78;21347;-82
2022/08/09 09:23:50;;;;;;;1.98;1.40;;;;;;;25.09;39.68;99820.58;2288059;78;20963;-81
2022/08/09 09:26:49;;;;;;;3.08;1.32;;;;;;;25.29;40.27;99818.64;2281013;78;20954;-81
2022/08/09 09:29:50;;;;;;;3.05;1.80;;;;;;;25.42;39.58;99827.13;2278758;78;21246;-81
2022/08/09 09:32:50;;;;;;;5.17;2.15;;;;;;;25.37;38.22;99822.80;2279025;78;20895;-83
2022/08/09 09:35:51;;;;;;;2.87;1.62;;;;;;;25.25;38.81;99826.34;2279185;78;20942;-81
2022/08/09 09:38:55;;;;;;;3.85;1.42;;;;;;;25.43;39.19;99823.53;2278102;78;20953;-81
2022/08/09 09:41:51;;;;;;;2.95;1.25;;;;;;;25.59;38.40;99829.64;2279499;78;20953;-82
2022/08/09 09:44:52;;;;;;;7.62;1.77;;;;;;;25.70;38.27;99829.31;2279912;78;20922;-81
2022/08/09 09:47:52;;;;;;;5.12;1.17;;;;;;;25.85;38.80;99826.11;2279625;78;20941;-80
2022/08/09 09:50:53;;;;;;;4.53;1.50;;;;;;;25.98;37.67;99830.56;2279809;78;21421;-81
2022/08/09 09:53:53;;;;;;;5.78;1.27;;;;;;;26.16;37.15;99824.59;2279821;77;21062;-82
2022/08/09 09:56:55;;;;;;;2.60;1.30;;;;;;;26.30;36.14;99821.41;2278620;78;21330;-81
2022/08/09 10:35:16;;;;;;;1.25;1.12;;;;;;;27.22;32.73;99796.90;2236939;79;22864;-83
2022/08/09 10:38:16;;;;;;;1.85;1.12;;;;;;;27.08;33.90;99801.95;2188060;81;20986;-83
2022/08/09 10:41:17;;;;;;;10.20;1.42;;;;;;;27.09;33.20;99801.02;2188902;81;20940;-82
2022/08/09 10:44:17;;;;;;;2.10;1.30;;;;;;;27.01;33.72;99801.79;2189712;81;21279;-82
2022/08/09 10:47:17;;;;;;;12.00;1.82;;;;;;;26.70;33.77;99802.06;2188824;81;21007;-81
2022/08/09 10:50:18;;;;;;;64.15;5.92;;;;;;;26.70;33.84;99799.39;2188876;81;20937;-81
2022/08/09 10:53:18;;;;;;;2.25;1.12;;;;;;;26.77;34.22;99800.89;2188360;81;20990;-80
2022/08/09 10:56:18;;;;;;;5.53;1.40;;;;;;;27.07;34.31;99800.20;2187966;81;21376;-82
2022/08/09 10:59:19;;;;;;;6.42;1.57;;;;;;;27.31;34.03;99795.64;2187736;81;20948;-81
2022/08/09 11:02:19;;;;;;;14.15;2.25;;;;;;;27.11;33.41;99812.55;2187999;81;21055;-82
2022/08/09 11:05:21;;;;;;;22.55;3.10;;;;;;;26.57;34.54;99801.66;2188600;81;20955;-79
2022/08/09 11:08:20;;;;;;;6.12;1.77;;;;;;;26.23;35.01;99806.50;2187633;81;20979;-81
2022/08/09 11:11:21;;;;;;;12.53;2.20;;;;;;;26.30;35.33;99801.33;2187430;81;20959;-82
2022/08/09 11:14:21;;;;;;;4.42;1.52;;;;;;;26.79;34.33;99794.13;2187895;80;20991;-80
2022/08/09 11:17:21;;;;;;;2.37;1.22;;;;;;;27.26;34.23;99802.54;2187999;81;21313;-84
2022/08/09 11:20:23;;;;;;;4.47;1.35;;;;;;;27.22;33.77;99800.92;2188214;81;20956;-82
2022/08/09 11:23:23;;;;;;;2.40;1.40;;;;;;;27.29;33.49;99802.41;2187518;81;20940;-82
2022/08/09 11:26:22;;;;;;;3.27;1.50;;;;;;;27.45;33.24;99801.77;2188016;81;21515;-82
2022/08/09 11:29:23;;;;;;;4.45;2.15;;;;;;;27.64;33.42;99796.06;2188665;81;20955;-83
2022/08/09 11:32:23;;;;;;;2.33;1.30;;;;;;;27.81;33.59;99795.37;2187227;81;20940;-82
2022/08/09 11:35:26;;;;;;;2.30;1.30;;;;;;;27.97;33.30;99784.84;2170913;80;21683;-82
2022/08/09 11:38:27;;;;;;;;;;;;;;;28.29;32.60;99769.99;2174353;81;20917;-83
2022/08/09 11:41:27;;;;;;;2.33;1.47;;;;;;;28.58;32.29;99782.94;2171193;81;20098;-82
2022/08/09 11:44:28;;;;;;;1.67;1.17;;;;;;;28.49;31.78;99774.84;2171198;81;21432;-83
2022/08/09 11:47:28;;;;;;;2.22;1.30;;;;;;;28.34;31.93;99774.20;2171311;81;20925;-83
2022/08/09 11:50:28;;;;;;;2.33;1.42;;;;;;;28.23;32.54;99775.17;2171471;81;20905;-81
2022/08/09 11:53:29;;;;;;;73.72;7.55;;;;;;;28.42;32.57;99774.72;2171598;81;21472;-83
2022/08/09 11:56:30;;;;;;;2.33;1.30;;;;;;;28.26;31.72;99791.61;2171489;82;20980;-83
2022/08/09 11:59:30;;;;;;;3.05;1.70;;;;;;;28.04;31.92;99782.28;2171084;82;20977;-83
2022/08/09 12:02:30;;;;;;;2.80;1.35;;;;;;;27.93;32.10;99779.20;2170937;81;20948;-83
2022/08/09 12:05:31;;;;;;;3.25;1.50;;;;;;;28.08;32.51;99787.91;2171478;81;21000;-83
2022/08/09 12:08:31;;;;;;;2.50;1.70;;;;;;;28.27;31.89;99776.77;2171002;81;20941;-83
2022/08/09 12:11:31;;;;;;;5.97;1.70;;;;;;;28.40;32.12;99769.89;2169048;81;21688;-83
2022/08/09 12:14:32;;;;;;;1.55;1.42;;;;;;;28.35;31.74;99773.27;2169353;82;21585;-82
2022/08/09 12:17:32;;;;;;;4.33;1.50;;;;;;;28.29;30.98;99772.67;2169979;81;20924;-82
2022/08/09 12:20:33;;;;;;;5.90;1.57;;;;;;;27.71;31.93;99769.85;2169640;81;20940;-84
2022/08/09 12:23:33;;;;;;;1.52;1.37;;;;;;;27.63;32.65;99778.23;2170174;81;21332;-84
2022/08/09 12:26:33;;;;;;;5.60;1.70;;;;;;;27.60;32.61;99770.28;2170194;81;21333;-83
2022/08/09 12:29:34;;;;;;;7.62;1.92;;;;;;;27.70;33.18;99763.61;2169956;81;20968;-83
2022/08/09 12:32:34;;;;;;;6.40;1.80;;;;;;;27.60;32.51;99783.25;2170303;82;21052;-84
2022/08/09 12:35:35;;;;;;;1.50;1.40;;;;;;;27.60;32.51;99783.25;2169480;81;21381;-83
2022/08/09 12:38:35;;;;;;;2.67;1.70;;;;;;;27.14;32.83;99785.63;2169929;81;20929;-80
2022/08/09 12:41:35;;;;;;;3.62;2.05;;;;;;;26.73;33.66;99776.97;2169594;81;20905;-83
2022/08/09 12:44:36;;;;;;;2.67;1.82;;;;;;;26.58;34.45;99779.31;2170313;81;21064;-82
2022/08/09 12:47:36;;;;;;;6.80;2.22;;;;;;;26.43;34.64;99781.23;2171666;82;21951;-83
2022/08/09 12:50:37;;;;;;;2.58;1.60;;;;;;;26.32;35.36;99774.95;2172257;81;20961;-80
2022/08/09 12:56:53;;;;;;;2.67;1.70;;;;;;;26.27;35.53;99773.34;2260473;79;22584;-83
2022/08/09 12:59:54;;;;;;;2.95;2.02;;;;;;;26.02;35.15;99774.25;2226831;80;20991;-86
2022/08/09 13:02:54;;;;;;;2.60;1.65;;;;;;;25.85;35.52;99781.11;2226664;80;21019;-84
2022/08/09 13:05:55;;;;;;;4.90;1.95;;;;;;;25.73;36.10;99769.51;2226903;80;20904;-84
2022/08/09 13:08:55;;;;;;;3.98;2.00;;;;;;;25.74;36.74;99782.83;2226271;80;21030;-85
2022/08/09 13:11:55;;;;;;;3.05;1.82;;;;;;;25.70;36.89;99760.66;2227362;80;20983;-84
2022/08/09 13:14:56;;;;;;;2.62;1.87;;;;;;;25.60;37.61;99772.58;2228281;80;21109;-83
2022/08/09 13:17:56;;;;;;;9.05;2.17;;;;;;;25.53;37.83;99768.37;2227666;80;21209;-84
2022/08/09 13:20:57;;;;;;;4.03;2.00;;;;;;;25.50;38.23;99765.80;2227884;80;21406;-84
2022/08/09 13:23:57;;;;;;;20.65;3.15;;;;;;;25.55;38.22;99765.17;2226662;80;20975;-84
2022/08/09 13:26:58;;;;;;;2.65;1.82;;;;;;;25.77;38.52;99773.35;2226531;80;20916;-84
2022/08/09 13:29:58;;;;;;;6.55;2.40;;;;;;;25.93;37.70;99769.67;2226906;80;20963;-83
2022/08/09 13:32:58;;;;;;;9.95;2.52;;;;;;;26.06;37.75;99767.45;2228021;80;20967;-84
2022/08/09 13:35:59;;;;;;;4.08;2.50;;;;;;;26.26;37.38;99771.14;2228321;80;20995;-83
2022/08/09 13:38:59;;;;;;;4.00;2.05;;;;;;;26.23;37.19;99769.04;2227395;80;21002;-84
2022/08/09 13:42:00;;;;;;;8.53;2.25;;;;;;;26.27;37.79;99768.87;2227699;80;21502;-85
2022/08/09 13:45:00;;;;;;;5.28;2.17;;;;;;;26.59;37.67;99769.47;2228492;80;20971;-85
2022/08/09 13:48:00;;;;;;;4.20;2.22;;;;;;;26.64;37.01;99761.66;2227989;80;20936;-83
2022/08/09 13:51:01;;;;;;;3.77;2.08;;;;;;;26.59;36.32;99769.47;2228593;80;20913;-84
2022/08/09 13:54:01;;;;;;;1.87;1.70;;;;;;;26.27;36.76;99766.19;2228559;80;20975;-85
2022/08/09 13:57:02;;;;;;;4.80;2.42;;;;;;;25.99;37.01;99766.30;2211490;80;21615;-84
2022/08/09 14:00:03;;;;;;;4.78;1.92;;;;;;;25.72;37.89;99767.30;2210043;81;21030;-84
2022/08/09 14:03:02;;;;;;;7.17;1.98;;;;;;;25.44;38.14;99762.47;2210285;81;21008;-83
2022/08/09 14:06:03;;;;;;;2.35;1.90;;;;;;;25.46;38.75;99763.28;2210000;81;20948;-84
2022/08/09 14:09:03;;;;;;;6.75;1.80;;;;;;;25.46;38.17;99758.81;2210794;81;20981;-84
2022/08/09 14:12:04;;;;;;;5.80;1.87;;;;;;;25.58;38.46;99759.73;2211326;81;21000;-83
2022/08/09 14:15:04;;;;;;;3.65;1.70;;;;;;;25.59;38.16;99752.58;2211899;81;21099;-83
2022/08/09 14:18:05;;;;;;;4.67;2.10;;;;;;;25.54;37.59;99754.08;2211975;81;21698;-83
2022/08/09 14:21:05;;;;;;;3.67;1.80;;;;;;;25.51;37.81;99758.19;2212528;81;20940;-83
2022/08/09 14:24:09;;;;;;;3.15;2.17;;;;;;;25.54;38.55;99745.19;2213183;81;20979;-84
2022/08/09 14:27:08;;;;;;;7.37;1.98;;;;;;;25.61;38.42;99758.75;2212509;81;21064;-83
2022/08/09 14:30:08;;;;;;;7.08;1.95;;;;;;;25.62;37.92;99753.81;2211303;81;20980;-83
2022/08/09 14:33:08;;;;;;;5.78;2.22;;;;;;;25.66;37.79;99760.83;2211265;81;20984;-83
2022/08/09 14:36:09;;;;;;;3.85;1.62;;;;;;;25.63;37.88;99752.88;2211115;81;21004;-84
2022/08/09 14:39:09;;;;;;;1.95;1.85;;;;;;;25.56;38.14;99754.02;2211162;81;21379;-83
2022/08/09 14:42:10;;;;;;;4.08;1.77;;;;;;;25.43;38.31;99748.23;2211600;81;20977;-83
2022/08/09 14:45:10;;;;;;;5.55;1.95;;;;;;;25.36;38.57;99748.91;2212790;81;20944;-85